sensor_id;sensor_type;location;lat;lon;timestamp;temperature;humidity
46608;DHT22;32330;51.936;7.184;2022-09-09T00:00:49;16.60;99.90
46608;DHT22;32330;51.936;7.184;2022-09-09T00:03:21;16.50;99.90
46608;DHT22;32330;51.936;7.184;2022-09-09T00:08:20;16.50;99.90
46608;DHT22;32330;51.936;7.184;2022-09-09T00:10:48;16.40;99.90
46608;DHT22;32330;51.936;7.184;2022-09-09T00:13:40;16.40;99.90
46608;DHT22;32330;51.936;7.184;2022-09-09T00:18:56;16.40;99.90
46608;DHT22;32330;51.936;7.184;2022-09-09T00:21:34;16.40;99.90
46608;DHT22;32330;51.936;7.184;2022-09-09T00:24:00;16.40;99.90
46608;DHT22;32330;51.936;7.184;2022-09-09T00:31:30;16.40;99.90
46608;DHT22;32330;51.936;7.184;2022-09-09T00:34:02;16.30;99.90
46608;DHT22;32330;51.936;7.184;2022-09-09T00:36:29;16.30;99.90
46608;DHT22;32330;51.936;7.184;2022-09-09T00:38:56;16.30;99.90
46608;DHT22;32330;51.936;7.184;2022-09-09T00:41:26;16.30;99.90
46608;DHT22;32330;51.936;7.184;2022-09-09T00:44:02;16.30;99.90
46608;DHT22;32330;51.936;7.184;2022-09-09T00:46:45;16.30;99.90
46608;DHT22;32330;51.936;7.184;2022-09-09T00:51:49;16.30;99.90
46608;DHT22;32330;51.936;7.184;2022-09-09T00:57:10;16.30;99.90
46608;DHT22;32330;51.936;7.184;2022-09-09T01:02:10;16.20;99.90
46608;DHT22;32330;51.936;7.184;2022-09-09T01:04:37;16.20;99.90
46608;DHT22;32330;51.936;7.184;2022-09-09T01:07:13;16.20;99.90
46608;DHT22;32330;51.936;7.184;2022-09-09T01:17:08;16.00;99.90
46608;DHT22;32330;51.936;7.184;2022-09-09T01:27:38;15.90;99.90
46608;DHT22;32330;51.936;7.184;2022-09-09T01:30:08;15.80;99.90
46608;DHT22;32330;51.936;7.184;2022-09-09T01:32:39;15.80;99.90
46608;DHT22;32330;51.936;7.184;2022-09-09T01:35:07;15.70;99.90
46608;DHT22;32330;51.936;7.184;2022-09-09T01:37:35;15.70;99.90
46608;DHT22;32330;51.936;7.184;2022-09-09T01:40:01;15.70;99.90
46608;DHT22;32330;51.936;7.184;2022-09-09T01:42:26;15.60;99.90
46608;DHT22;32330;51.936;7.184;2022-09-09T01:44:52;15.60;99.90
46608;DHT22;32330;51.936;7.184;2022-09-09T01:47:19;15.50;99.90
46608;DHT22;32330;51.936;7.184;2022-09-09T01:49:45;15.50;99.90
46608;DHT22;32330;51.936;7.184;2022-09-09T01:52:10;15.50;99.90
46608;DHT22;32330;51.936;7.184;2022-09-09T01:54:36;15.50;99.90
46608;DHT22;32330;51.936;7.184;2022-09-09T01:57:06;15.50;99.90
46608;DHT22;32330;51.936;7.184;2022-09-09T01:59:41;15.50;99.90
46608;DHT22;32330;51.936;7.184;2022-09-09T02:02:17;15.40;99.90
46608;DHT22;32330;51.936;7.184;2022-09-09T02:04:44;15.40;99.90
46608;DHT22;32330;51.936;7.184;2022-09-09T02:07:24;15.40;99.90
46608;DHT22;32330;51.936;7.184;2022-09-09T02:09:58;15.40;99.90
46608;DHT22;32330;51.936;7.184;2022-09-09T02:12:24;15.40;99.90
46608;DHT22;32330;51.936;7.184;2022-09-09T02:14:52;15.40;99.90
46608;DHT22;32330;51.936;7.184;2022-09-09T02:17:22;15.40;99.90
46608;DHT22;32330;51.936;7.184;2022-09-09T02:19:52;15.40;99.90
46608;DHT22;32330;51.936;7.184;2022-09-09T02:22:20;15.40;99.90
46608;DHT22;32330;51.936;7.184;2022-09-09T02:24:47;15.40;99.90
46608;DHT22;32330;51.936;7.184;2022-09-09T02:27:15;15.40;99.90
46608;DHT22;32330;51.936;7.184;2022-09-09T02:29:42;15.40;99.90
46608;DHT22;32330;51.936;7.184;2022-09-09T02:32:09;15.40;99.90
46608;DHT22;32330;51.936;7.184;2022-09-09T02:34:37;15.40;99.90
46608;DHT22;32330;51.936;7.184;2022-09-09T02:37:05;15.30;99.90
46608;DHT22;32330;51.936;7.184;2022-09-09T02:39:32;15.30;99.90
46608;DHT22;32330;51.936;7.184;2022-09-09T02:41:57;15.40;99.90
46608;DHT22;32330;51.936;7.184;2022-09-09T02:44:22;15.30;99.90
46608;DHT22;32330;51.936;7.184;2022-09-09T02:52:18;15.40;99.90
46608;DHT22;32330;51.936;7.184;2022-09-09T02:54:45;15.40;99.90
46608;DHT22;32330;51.936;7.184;2022-09-09T02:57:12;15.40;99.90
46608;DHT22;32330;51.936;7.184;2022-09-09T02:59:39;15.40;99.90
46608;DHT22;32330;51.936;7.184;2022-09-09T03:02:05;15.40;99.90
46608;DHT22;32330;51.936;7.184;2022-09-09T03:04:30;15.40;99.90
46608;DHT22;32330;51.936;7.184;2022-09-09T03:06:56;15.40;99.90
46608;DHT22;32330;51.936;7.184;2022-09-09T03:09:22;15.50;99.90
46608;DHT22;32330;51.936;7.184;2022-09-09T03:11:47;15.50;99.90
46608;DHT22;32330;51.936;7.184;2022-09-09T03:14:14;15.50;99.90
46608;DHT22;32330;51.936;7.184;2022-09-09T03:16:40;15.40;99.90
46608;DHT22;32330;51.936;7.184;2022-09-09T03:19:08;15.50;99.90
46608;DHT22;32330;51.936;7.184;2022-09-09T03:21:34;15.50;99.90
46608;DHT22;32330;51.936;7.184;2022-09-09T03:23:59;15.50;99.90
46608;DHT22;32330;51.936;7.184;2022-09-09T03:26:25;15.50;99.90
46608;DHT22;32330;51.936;7.184;2022-09-09T03:28:50;15.50;99.90
46608;DHT22;32330;51.936;7.184;2022-09-09T03:31:17;15.50;99.90
46608;DHT22;32330;51.936;7.184;2022-09-09T03:33:44;15.50;99.90
46608;DHT22;32330;51.936;7.184;2022-09-09T03:36:10;15.50;99.90
46608;DHT22;32330;51.936;7.184;2022-09-09T03:38:35;15.50;99.90
46608;DHT22;32330;51.936;7.184;2022-09-09T03:41:01;15.50;99.90
46608;DHT22;32330;51.936;7.184;2022-09-09T03:43:27;15.50;99.90
46608;DHT22;32330;51.936;7.184;2022-09-09T03:45:53;15.50;99.90
46608;DHT22;32330;51.936;7.184;2022-09-09T03:48:18;15.40;99.90
46608;DHT22;32330;51.936;7.184;2022-09-09T03:50:45;15.40;99.90
46608;DHT22;32330;51.936;7.184;2022-09-09T03:53:10;15.40;99.90
46608;DHT22;32330;51.936;7.184;2022-09-09T03:55:36;15.40;99.90
46608;DHT22;32330;51.936;7.184;2022-09-09T03:58:01;15.40;99.90
46608;DHT22;32330;51.936;7.184;2022-09-09T04:00:27;15.40;99.90
46608;DHT22;32330;51.936;7.184;2022-09-09T04:02:52;15.30;99.90
46608;DHT22;32330;51.936;7.184;2022-09-09T04:05:19;15.30;99.90
46608;DHT22;32330;51.936;7.184;2022-09-09T04:07:44;15.30;99.90
46608;DHT22;32330;51.936;7.184;2022-09-09T04:10:10;15.30;99.90
46608;DHT22;32330;51.936;7.184;2022-09-09T04:12:35;15.30;99.90
46608;DHT22;32330;51.936;7.184;2022-09-09T04:15:01;15.30;99.90
46608;DHT22;32330;51.936;7.184;2022-09-09T04:17:27;15.30;99.90
46608;DHT22;32330;51.936;7.184;2022-09-09T04:19:52;15.20;99.90
46608;DHT22;32330;51.936;7.184;2022-09-09T04:22:18;15.20;99.90
46608;DHT22;32330;51.936;7.184;2022-09-09T04:24:43;15.20;99.90
46608;DHT22;32330;51.936;7.184;2022-09-09T04:27:09;15.10;99.90
46608;DHT22;32330;51.936;7.184;2022-09-09T04:29:34;15.20;99.90
46608;DHT22;32330;51.936;7.184;2022-09-09T04:32:00;15.10;99.90
46608;DHT22;32330;51.936;7.184;2022-09-09T04:34:25;15.10;99.90
46608;DHT22;32330;51.936;7.184;2022-09-09T04:36:51;15.10;99.90
46608;DHT22;32330;51.936;7.184;2022-09-09T04:39:17;15.20;99.90
46608;DHT22;32330;51.936;7.184;2022-09-09T04:41:42;15.10;99.90
46608;DHT22;32330;51.936;7.184;2022-09-09T04:44:08;15.10;99.90
46608;DHT22;32330;51.936;7.184;2022-09-09T04:46:33;15.20;99.90
46608;DHT22;32330;51.936;7.184;2022-09-09T04:48:59;15.10;99.90
46608;DHT22;32330;51.936;7.184;2022-09-09T04:51:25;15.20;99.90
46608;DHT22;32330;51.936;7.184;2022-09-09T04:53:50;15.20;99.90
46608;DHT22;32330;51.936;7.184;2022-09-09T04:56:17;15.20;99.90
46608;DHT22;32330;51.936;7.184;2022-09-09T04:58:42;15.20;99.90
46608;DHT22;32330;51.936;7.184;2022-09-09T05:01:09;15.20;99.90
46608;DHT22;32330;51.936;7.184;2022-09-09T05:03:35;15.20;99.90
46608;DHT22;32330;51.936;7.184;2022-09-09T05:08:29;15.30;99.90
46608;DHT22;32330;51.936;7.184;2022-09-09T05:10:54;15.30;99.90
46608;DHT22;32330;51.936;7.184;2022-09-09T05:13:20;15.30;99.90
46608;DHT22;32330;51.936;7.184;2022-09-09T05:15:53;15.30;99.90
46608;DHT22;32330;51.936;7.184;2022-09-09T05:18:18;15.40;99.90
46608;DHT22;32330;51.936;7.184;2022-09-09T05:20:44;15.40;99.90
46608;DHT22;32330;51.936;7.184;2022-09-09T05:23:09;15.40;99.90
46608;DHT22;32330;51.936;7.184;2022-09-09T05:25:37;15.40;99.90
46608;DHT22;32330;51.936;7.184;2022-09-09T05:28:03;15.40;99.90
46608;DHT22;32330;51.936;7.184;2022-09-09T05:30:28;15.50;99.90
46608;DHT22;32330;51.936;7.184;2022-09-09T05:32:55;15.50;99.90
46608;DHT22;32330;51.936;7.184;2022-09-09T05:35:21;15.40;99.90
46608;DHT22;32330;51.936;7.184;2022-09-09T05:37:48;15.50;99.90
46608;DHT22;32330;51.936;7.184;2022-09-09T05:40:14;15.50;99.90
46608;DHT22;32330;51.936;7.184;2022-09-09T05:42:40;15.50;99.90
46608;DHT22;32330;51.936;7.184;2022-09-09T05:45:06;15.50;99.90
46608;DHT22;32330;51.936;7.184;2022-09-09T05:47:33;15.60;99.90
46608;DHT22;32330;51.936;7.184;2022-09-09T05:49:58;15.60;99.90
46608;DHT22;32330;51.936;7.184;2022-09-09T05:52:24;15.60;99.90
46608;DHT22;32330;51.936;7.184;2022-09-09T05:54:51;15.60;99.90
46608;DHT22;32330;51.936;7.184;2022-09-09T05:57:17;15.60;99.90
46608;DHT22;32330;51.936;7.184;2022-09-09T05:59:44;15.70;99.90
46608;DHT22;32330;51.936;7.184;2022-09-09T06:02:10;15.70;99.90
46608;DHT22;32330;51.936;7.184;2022-09-09T06:04:35;15.80;99.90
46608;DHT22;32330;51.936;7.184;2022-09-09T06:07:01;15.80;99.90
46608;DHT22;32330;51.936;7.184;2022-09-09T06:09:26;15.90;99.90
46608;DHT22;32330;51.936;7.184;2022-09-09T06:11:51;15.90;99.90
46608;DHT22;32330;51.936;7.184;2022-09-09T06:14:17;15.90;99.90
46608;DHT22;32330;51.936;7.184;2022-09-09T06:16:46;15.90;99.90
46608;DHT22;32330;51.936;7.184;2022-09-09T06:19:11;16.00;99.90
46608;DHT22;32330;51.936;7.184;2022-09-09T06:21:38;16.10;99.90
46608;DHT22;32330;51.936;7.184;2022-09-09T06:24:04;16.10;99.90
46608;DHT22;32330;51.936;7.184;2022-09-09T06:26:31;16.20;99.90
46608;DHT22;32330;51.936;7.184;2022-09-09T06:28:56;16.30;99.90
46608;DHT22;32330;51.936;7.184;2022-09-09T06:31:24;16.30;99.90
46608;DHT22;32330;51.936;7.184;2022-09-09T06:33:50;16.30;99.90
46608;DHT22;32330;51.936;7.184;2022-09-09T06:36:17;16.40;99.90
46608;DHT22;32330;51.936;7.184;2022-09-09T06:38:43;16.40;99.90
46608;DHT22;32330;51.936;7.184;2022-09-09T06:41:09;16.40;99.90
46608;DHT22;32330;51.936;7.184;2022-09-09T06:43:35;16.40;99.90
46608;DHT22;32330;51.936;7.184;2022-09-09T06:46:02;16.40;99.90
46608;DHT22;32330;51.936;7.184;2022-09-09T06:48:28;16.50;99.90
46608;DHT22;32330;51.936;7.184;2022-09-09T06:51:06;16.50;99.90
46608;DHT22;32330;51.936;7.184;2022-09-09T06:53:33;16.50;99.90
46608;DHT22;32330;51.936;7.184;2022-09-09T06:56:03;16.60;99.90
46608;DHT22;32330;51.936;7.184;2022-09-09T06:58:42;16.60;99.90
46608;DHT22;32330;51.936;7.184;2022-09-09T07:01:10;16.70;99.90
46608;DHT22;32330;51.936;7.184;2022-09-09T07:03:35;16.80;99.90
46608;DHT22;32330;51.936;7.184;2022-09-09T07:06:01;17.00;99.90
46608;DHT22;32330;51.936;7.184;2022-09-09T07:08:27;17.10;99.90
46608;DHT22;32330;51.936;7.184;2022-09-09T07:10:53;17.10;99.90
46608;DHT22;32330;51.936;7.184;2022-09-09T07:13:23;17.10;99.90
46608;DHT22;32330;51.936;7.184;2022-09-09T07:15:50;17.10;99.90
46608;DHT22;32330;51.936;7.184;2022-09-09T07:18:16;17.20;99.90
46608;DHT22;32330;51.936;7.184;2022-09-09T07:20:41;17.20;99.90
46608;DHT22;32330;51.936;7.184;2022-09-09T07:23:07;17.20;99.90
46608;DHT22;32330;51.936;7.184;2022-09-09T07:25:32;17.20;99.90
46608;DHT22;32330;51.936;7.184;2022-09-09T07:27:57;17.30;99.90
46608;DHT22;32330;51.936;7.184;2022-09-09T07:30:23;17.30;99.90
46608;DHT22;32330;51.936;7.184;2022-09-09T07:32:50;17.30;99.90
46608;DHT22;32330;51.936;7.184;2022-09-09T07:35:16;17.30;99.90
46608;DHT22;32330;51.936;7.184;2022-09-09T07:37:41;17.30;99.90
46608;DHT22;32330;51.936;7.184;2022-09-09T07:40:07;17.40;99.90
46608;DHT22;32330;51.936;7.184;2022-09-09T07:42:32;17.50;99.90
46608;DHT22;32330;51.936;7.184;2022-09-09T07:44:58;17.60;99.90
46608;DHT22;32330;51.936;7.184;2022-09-09T07:47:24;17.60;99.90
46608;DHT22;32330;51.936;7.184;2022-09-09T07:49:50;17.60;99.90
46608;DHT22;32330;51.936;7.184;2022-09-09T07:52:15;17.70;99.90
46608;DHT22;32330;51.936;7.184;2022-09-09T07:54:41;17.80;99.90
46608;DHT22;32330;51.936;7.184;2022-09-09T07:57:07;17.90;99.90
46608;DHT22;32330;51.936;7.184;2022-09-09T07:59:33;17.90;99.90
46608;DHT22;32330;51.936;7.184;2022-09-09T08:01:58;18.00;99.90
46608;DHT22;32330;51.936;7.184;2022-09-09T08:04:24;18.20;99.90
46608;DHT22;32330;51.936;7.184;2022-09-09T08:06:56;18.40;99.90
46608;DHT22;32330;51.936;7.184;2022-09-09T08:09:22;18.40;99.90
46608;DHT22;32330;51.936;7.184;2022-09-09T08:11:50;18.30;99.90
46608;DHT22;32330;51.936;7.184;2022-09-09T08:14:16;18.20;99.90
46608;DHT22;32330;51.936;7.184;2022-09-09T08:16:43;18.10;99.90
46608;DHT22;32330;51.936;7.184;2022-09-09T08:19:09;18.00;99.90
46608;DHT22;32330;51.936;7.184;2022-09-09T08:21:35;18.20;99.90
46608;DHT22;32330;51.936;7.184;2022-09-09T08:24:02;18.20;99.90
46608;DHT22;32330;51.936;7.184;2022-09-09T08:26:28;18.20;99.90
46608;DHT22;32330;51.936;7.184;2022-09-09T08:28:55;18.10;99.90
46608;DHT22;32330;51.936;7.184;2022-09-09T08:31:26;18.00;99.90
46608;DHT22;32330;51.936;7.184;2022-09-09T08:33:53;18.10;99.90
46608;DHT22;32330;51.936;7.184;2022-09-09T08:36:20;18.40;99.90
46608;DHT22;32330;51.936;7.184;2022-09-09T08:38:47;18.80;99.90
46608;DHT22;32330;51.936;7.184;2022-09-09T08:46:42;19.30;99.90
46608;DHT22;32330;51.936;7.184;2022-09-09T08:49:22;19.20;99.90
46608;DHT22;32330;51.936;7.184;2022-09-09T08:51:51;19.20;99.90
46608;DHT22;32330;51.936;7.184;2022-09-09T08:54:18;19.10;99.90
46608;DHT22;32330;51.936;7.184;2022-09-09T08:56:44;19.10;99.90
46608;DHT22;32330;51.936;7.184;2022-09-09T08:59:09;19.50;99.90
46608;DHT22;32330;51.936;7.184;2022-09-09T09:01:51;19.60;99.90
46608;DHT22;32330;51.936;7.184;2022-09-09T09:07:26;19.60;99.90
46608;DHT22;32330;51.936;7.184;2022-09-09T09:09:58;20.00;99.90
46608;DHT22;32330;51.936;7.184;2022-09-09T09:12:27;20.20;99.90
46608;DHT22;32330;51.936;7.184;2022-09-09T09:14:54;20.00;99.90
46608;DHT22;32330;51.936;7.184;2022-09-09T09:17:21;19.90;99.90
46608;DHT22;32330;51.936;7.184;2022-09-09T09:19:48;19.70;99.90
46608;DHT22;32330;51.936;7.184;2022-09-09T09:27:51;19.70;99.90
46608;DHT22;32330;51.936;7.184;2022-09-09T09:30:19;19.50;99.90
46608;DHT22;32330;51.936;7.184;2022-09-09T09:32:49;19.50;99.90
46608;DHT22;32330;51.936;7.184;2022-09-09T09:35:16;19.30;99.90
46608;DHT22;32330;51.936;7.184;2022-09-09T09:37:42;19.70;99.90
46608;DHT22;32330;51.936;7.184;2022-09-09T09:40:11;20.10;99.90
46608;DHT22;32330;51.936;7.184;2022-09-09T09:42:38;20.40;99.90
46608;DHT22;32330;51.936;7.184;2022-09-09T09:45:08;20.50;99.90
46608;DHT22;32330;51.936;7.184;2022-09-09T09:47:40;20.60;99.90
46608;DHT22;32330;51.936;7.184;2022-09-09T09:50:16;20.70;99.90
46608;DHT22;32330;51.936;7.184;2022-09-09T09:52:41;20.80;99.90
46608;DHT22;32330;51.936;7.184;2022-09-09T09:55:12;20.70;99.90
46608;DHT22;32330;51.936;7.184;2022-09-09T09:57:38;20.80;99.90
46608;DHT22;32330;51.936;7.184;2022-09-09T10:02:37;21.00;99.90
46608;DHT22;32330;51.936;7.184;2022-09-09T10:05:14;20.90;99.90
46608;DHT22;32330;51.936;7.184;2022-09-09T10:07:40;21.20;99.90
46608;DHT22;32330;51.936;7.184;2022-09-09T10:10:08;21.20;99.90
46608;DHT22;32330;51.936;7.184;2022-09-09T10:12:40;21.00;99.90
46608;DHT22;32330;51.936;7.184;2022-09-09T10:17:47;21.50;99.90
46608;DHT22;32330;51.936;7.184;2022-09-09T10:22:57;21.40;99.90
46608;DHT22;32330;51.936;7.184;2022-09-09T10:28:08;21.10;99.90
46608;DHT22;32330;51.936;7.184;2022-09-09T10:35:53;21.00;99.90
46608;DHT22;32330;51.936;7.184;2022-09-09T10:46:05;20.60;99.90
46608;DHT22;32330;51.936;7.184;2022-09-09T10:56:12;21.20;99.80
46608;DHT22;32330;51.936;7.184;2022-09-09T11:01:16;21.20;99.50
46608;DHT22;32330;51.936;7.184;2022-09-09T11:03:43;21.20;99.00
46608;DHT22;32330;51.936;7.184;2022-09-09T11:06:14;21.20;98.60
46608;DHT22;32330;51.936;7.184;2022-09-09T11:08:42;21.20;99.40
46608;DHT22;32330;51.936;7.184;2022-09-09T11:11:13;21.40;98.70
46608;DHT22;32330;51.936;7.184;2022-09-09T11:14:26;21.40;99.00
46608;DHT22;32330;51.936;7.184;2022-09-09T11:19:07;21.80;98.70
46608;DHT22;32330;51.936;7.184;2022-09-09T11:21:37;21.80;97.50
46608;DHT22;32330;51.936;7.184;2022-09-09T11:24:10;22.10;97.20
46608;DHT22;32330;51.936;7.184;2022-09-09T11:26:41;22.30;97.40
46608;DHT22;32330;51.936;7.184;2022-09-09T11:29:17;22.40;96.80
46608;DHT22;32330;51.936;7.184;2022-09-09T11:34:26;22.20;96.90
46608;DHT22;32330;51.936;7.184;2022-09-09T11:39:38;21.90;96.00
46608;DHT22;32330;51.936;7.184;2022-09-09T11:44:38;21.50;96.10
46608;DHT22;32330;51.936;7.184;2022-09-09T11:47:15;21.30;96.40
46608;DHT22;32330;51.936;7.184;2022-09-09T11:49:41;21.20;96.80
46608;DHT22;32330;51.936;7.184;2022-09-09T11:52:11;21.10;96.80
46608;DHT22;32330;51.936;7.184;2022-09-09T11:54:44;21.00;97.50
46608;DHT22;32330;51.936;7.184;2022-09-09T11:57:22;20.80;99.70
46608;DHT22;32330;51.936;7.184;2022-09-09T11:59:50;20.70;99.90
46608;DHT22;32330;51.936;7.184;2022-09-09T12:14:44;20.70;99.90
46608;DHT22;32330;51.936;7.184;2022-09-09T12:17:23;21.00;99.90
46608;DHT22;32330;51.936;7.184;2022-09-09T12:27:58;21.00;99.90
46608;DHT22;32330;51.936;7.184;2022-09-09T12:30:28;21.00;99.90
46608;DHT22;32330;51.936;7.184;2022-09-09T12:33:00;21.20;99.90
46608;DHT22;32330;51.936;7.184;2022-09-09T12:35:27;21.10;99.90
46608;DHT22;32330;51.936;7.184;2022-09-09T12:38:00;21.00;99.90
46608;DHT22;32330;51.936;7.184;2022-09-09T12:40:32;21.10;99.90
46608;DHT22;32330;51.936;7.184;2022-09-09T12:43:01;21.10;99.90
46608;DHT22;32330;51.936;7.184;2022-09-09T12:45:28;21.40;99.90
46608;DHT22;32330;51.936;7.184;2022-09-09T12:47:54;21.60;99.90
46608;DHT22;32330;51.936;7.184;2022-09-09T12:50:22;21.60;98.90
46608;DHT22;32330;51.936;7.184;2022-09-09T12:52:48;21.60;98.60
46608;DHT22;32330;51.936;7.184;2022-09-09T12:55:19;21.40;99.30
46608;DHT22;32330;51.936;7.184;2022-09-09T12:57:46;21.40;98.00
46608;DHT22;32330;51.936;7.184;2022-09-09T13:00:19;21.50;99.20
46608;DHT22;32330;51.936;7.184;2022-09-09T13:02:46;21.50;98.70
46608;DHT22;32330;51.936;7.184;2022-09-09T13:05:13;21.30;98.30
46608;DHT22;32330;51.936;7.184;2022-09-09T13:07:39;21.10;98.30
46608;DHT22;32330;51.936;7.184;2022-09-09T13:10:05;21.00;98.90
46608;DHT22;32330;51.936;7.184;2022-09-09T13:12:31;20.80;99.10
46608;DHT22;32330;51.936;7.184;2022-09-09T13:14:56;21.00;99.90
46608;DHT22;32330;51.936;7.184;2022-09-09T13:17:23;20.90;98.90
46608;DHT22;32330;51.936;7.184;2022-09-09T13:19:49;21.00;99.20
46608;DHT22;32330;51.936;7.184;2022-09-09T13:24:46;21.20;99.90
46608;DHT22;32330;51.936;7.184;2022-09-09T13:29:53;21.20;99.90
46608;DHT22;32330;51.936;7.184;2022-09-09T13:32:22;21.40;99.90
46608;DHT22;32330;51.936;7.184;2022-09-09T13:34:51;21.20;99.90
46608;DHT22;32330;51.936;7.184;2022-09-09T13:37:21;21.00;99.90
46608;DHT22;32330;51.936;7.184;2022-09-09T13:39:51;20.80;99.90
46608;DHT22;32330;51.936;7.184;2022-09-09T13:42:27;20.70;99.90
46608;DHT22;32330;51.936;7.184;2022-09-09T13:44:53;20.60;99.90
46608;DHT22;32330;51.936;7.184;2022-09-09T13:47:21;20.10;99.90
46608;DHT22;32330;51.936;7.184;2022-09-09T13:49:47;19.40;99.90
46608;DHT22;32330;51.936;7.184;2022-09-09T13:52:14;19.10;99.90
46608;DHT22;32330;51.936;7.184;2022-09-09T13:54:42;18.90;99.90
46608;DHT22;32330;51.936;7.184;2022-09-09T13:57:21;18.90;99.90
46608;DHT22;32330;51.936;7.184;2022-09-09T13:59:47;19.00;99.90
46608;DHT22;32330;51.936;7.184;2022-09-09T14:02:13;19.00;99.90
46608;DHT22;32330;51.936;7.184;2022-09-09T14:04:38;19.10;99.90
46608;DHT22;32330;51.936;7.184;2022-09-09T14:07:08;19.20;99.90
46608;DHT22;32330;51.936;7.184;2022-09-09T14:09:34;19.20;99.90
46608;DHT22;32330;51.936;7.184;2022-09-09T14:12:00;19.10;99.90
46608;DHT22;32330;51.936;7.184;2022-09-09T14:14:25;19.10;99.90
46608;DHT22;32330;51.936;7.184;2022-09-09T14:16:50;19.20;99.90
46608;DHT22;32330;51.936;7.184;2022-09-09T14:19:16;19.20;99.90
46608;DHT22;32330;51.936;7.184;2022-09-09T14:21:41;19.20;99.90
46608;DHT22;32330;51.936;7.184;2022-09-09T14:24:07;19.20;99.90
46608;DHT22;32330;51.936;7.184;2022-09-09T14:26:33;19.50;99.90
46608;DHT22;32330;51.936;7.184;2022-09-09T14:28:58;19.80;99.90
46608;DHT22;32330;51.936;7.184;2022-09-09T14:31:25;20.10;99.90
46608;DHT22;32330;51.936;7.184;2022-09-09T14:33:51;19.90;99.90
46608;DHT22;32330;51.936;7.184;2022-09-09T14:36:16;20.10;99.90
46608;DHT22;32330;51.936;7.184;2022-09-09T14:38:42;20.10;99.90
46608;DHT22;32330;51.936;7.184;2022-09-09T14:41:11;20.10;99.90
46608;DHT22;32330;51.936;7.184;2022-09-09T14:43:37;20.20;99.90
46608;DHT22;32330;51.936;7.184;2022-09-09T14:46:06;20.20;99.90
46608;DHT22;32330;51.936;7.184;2022-09-09T14:48:32;20.30;99.90
46608;DHT22;32330;51.936;7.184;2022-09-09T14:51:04;20.40;99.90
46608;DHT22;32330;51.936;7.184;2022-09-09T14:53:29;20.50;99.90
46608;DHT22;32330;51.936;7.184;2022-09-09T14:56:02;20.50;99.90
46608;DHT22;32330;51.936;7.184;2022-09-09T14:58:30;20.40;99.90
46608;DHT22;32330;51.936;7.184;2022-09-09T15:00:55;20.20;99.90
46608;DHT22;32330;51.936;7.184;2022-09-09T15:03:26;20.10;99.90
46608;DHT22;32330;51.936;7.184;2022-09-09T15:05:51;20.00;99.90
46608;DHT22;32330;51.936;7.184;2022-09-09T15:08:17;19.80;99.90
46608;DHT22;32330;51.936;7.184;2022-09-09T15:10:42;20.00;99.90
46608;DHT22;32330;51.936;7.184;2022-09-09T15:13:09;20.10;99.90
46608;DHT22;32330;51.936;7.184;2022-09-09T15:15:35;20.00;99.90
46608;DHT22;32330;51.936;7.184;2022-09-09T15:18:00;19.90;99.90
46608;DHT22;32330;51.936;7.184;2022-09-09T15:20:26;19.90;99.90
46608;DHT22;32330;51.936;7.184;2022-09-09T15:22:51;19.80;99.90
46608;DHT22;32330;51.936;7.184;2022-09-09T15:25:17;19.70;99.90
46608;DHT22;32330;51.936;7.184;2022-09-09T15:27:45;19.80;99.90
46608;DHT22;32330;51.936;7.184;2022-09-09T15:30:10;19.90;99.90
46608;DHT22;32330;51.936;7.184;2022-09-09T15:32:36;19.90;99.90
46608;DHT22;32330;51.936;7.184;2022-09-09T15:35:01;19.90;99.90
46608;DHT22;32330;51.936;7.184;2022-09-09T15:37:27;19.80;99.90
46608;DHT22;32330;51.936;7.184;2022-09-09T15:39:52;19.60;99.90
46608;DHT22;32330;51.936;7.184;2022-09-09T15:42:18;19.60;99.90
46608;DHT22;32330;51.936;7.184;2022-09-09T15:44:43;19.50;99.90
46608;DHT22;32330;51.936;7.184;2022-09-09T15:47:12;19.60;99.90
46608;DHT22;32330;51.936;7.184;2022-09-09T15:49:38;19.40;99.90
46608;DHT22;32330;51.936;7.184;2022-09-09T15:52:04;19.30;99.90
46608;DHT22;32330;51.936;7.184;2022-09-09T15:54:31;19.00;99.90
46608;DHT22;32330;51.936;7.184;2022-09-09T15:56:58;19.00;99.90
46608;DHT22;32330;51.936;7.184;2022-09-09T15:59:24;18.90;99.90
46608;DHT22;32330;51.936;7.184;2022-09-09T16:01:50;18.50;99.90
46608;DHT22;32330;51.936;7.184;2022-09-09T16:04:18;18.30;99.90
46608;DHT22;32330;51.936;7.184;2022-09-09T16:07:09;18.30;99.90
46608;DHT22;32330;51.936;7.184;2022-09-09T16:09:34;18.30;99.90
46608;DHT22;32330;51.936;7.184;2022-09-09T16:12:00;18.40;99.90
46608;DHT22;32330;51.936;7.184;2022-09-09T16:14:26;18.30;99.90
46608;DHT22;32330;51.936;7.184;2022-09-09T16:16:52;18.40;99.90
46608;DHT22;32330;51.936;7.184;2022-09-09T16:19:17;18.40;99.90
46608;DHT22;32330;51.936;7.184;2022-09-09T16:21:48;18.20;99.90
46608;DHT22;32330;51.936;7.184;2022-09-09T16:24:14;18.40;99.90
46608;DHT22;32330;51.936;7.184;2022-09-09T16:26:44;18.20;99.90
46608;DHT22;32330;51.936;7.184;2022-09-09T16:29:13;18.10;99.90
46608;DHT22;32330;51.936;7.184;2022-09-09T16:31:39;18.10;99.90
46608;DHT22;32330;51.936;7.184;2022-09-09T16:34:45;18.20;99.90
46608;DHT22;32330;51.936;7.184;2022-09-09T16:37:11;18.00;99.90
46608;DHT22;32330;51.936;7.184;2022-09-09T16:39:36;18.00;99.90
46608;DHT22;32330;51.936;7.184;2022-09-09T16:42:02;18.00;99.90
46608;DHT22;32330;51.936;7.184;2022-09-09T16:44:28;17.90;99.90
46608;DHT22;32330;51.936;7.184;2022-09-09T16:46:53;18.00;99.90
46608;DHT22;32330;51.936;7.184;2022-09-09T16:49:20;18.00;99.90
46608;DHT22;32330;51.936;7.184;2022-09-09T16:51:49;18.00;99.90
46608;DHT22;32330;51.936;7.184;2022-09-09T16:54:15;17.90;99.90
46608;DHT22;32330;51.936;7.184;2022-09-09T16:56:42;18.00;99.90
46608;DHT22;32330;51.936;7.184;2022-09-09T16:59:15;17.90;99.90
46608;DHT22;32330;51.936;7.184;2022-09-09T17:01:42;17.90;99.90
46608;DHT22;32330;51.936;7.184;2022-09-09T17:04:09;18.00;99.90
46608;DHT22;32330;51.936;7.184;2022-09-09T17:06:36;17.90;99.90
46608;DHT22;32330;51.936;7.184;2022-09-09T17:09:07;17.80;99.90
46608;DHT22;32330;51.936;7.184;2022-09-09T17:11:33;17.80;99.90
46608;DHT22;32330;51.936;7.184;2022-09-09T17:13:59;17.70;99.90
46608;DHT22;32330;51.936;7.184;2022-09-09T17:16:26;17.60;99.90
46608;DHT22;32330;51.936;7.184;2022-09-09T17:18:55;17.60;99.90
46608;DHT22;32330;51.936;7.184;2022-09-09T17:21:23;17.60;99.90
46608;DHT22;32330;51.936;7.184;2022-09-09T17:23:50;17.60;99.90
46608;DHT22;32330;51.936;7.184;2022-09-09T17:26:17;17.50;99.90
46608;DHT22;32330;51.936;7.184;2022-09-09T17:28:43;17.40;99.90
46608;DHT22;32330;51.936;7.184;2022-09-09T17:31:11;17.40;99.90
46608;DHT22;32330;51.936;7.184;2022-09-09T17:33:37;17.40;99.90
46608;DHT22;32330;51.936;7.184;2022-09-09T17:36:10;17.40;99.90
46608;DHT22;32330;51.936;7.184;2022-09-09T17:38:36;17.30;99.90